Point Fosdick, Washington
Current Conditions -  °F | °C
As of 10:53 AM on Thursday 23 Oct 2014 (Local Time) from KTIW Reporting Station
Light Rain Light Rain  
Wind Chill: 51°   Ceiling: 5000
Heat Index: 51°   Visibility: 5mi
Dew Point: 48°   Wind: 12mph
Humidity: 89%   Direction: 180°S
Pressure: 29.81"   Gusts: NA
Location:  47.2986°N, 122.616°W
Report Text: KTIW 231753Z 18010KT 5SM -RA BR FEW010 BKN050 BKN060 11/09 A2981 RMK AO2 SLP093 P0003 60018 T01060089 10111 20100 51024
Loading
Personal Weather Stations






























Interactive Weather Map
Tropical Storm Tracking
New forecast layout! Learn more

10-Day Weather Forecast

Advertisements
Track Severe Weather on mobile